Time;durP1;ratioP1;P1;durP2;ratioP2;P2;SDS_P1;SDS_P2;PMS_P1;PMS_P2;Temp;Humidity;BMP_temperature;BMP_pressure;BME280_temperature;BME280_humidity;BME280_pressure;Samples;Min_cycle;Max_cycle;Signal;HPM_P1;HPM_P2
2023/01/20 00:02:23;;;;;;;27.07;10.30;;;;;;;;;;6171665;23;20265;-90
2023/01/20 00:05:29;;;;;;;17.53;8.73;;;;;;;;;;6169557;23;20172;-90
2023/01/20 00:08:35;;;;;;;19.63;8.50;;;;;;;;;;6168762;23;20196;-87
2023/01/20 00:11:43;;;;;;;19.57;8.60;;;;;;;;;;6168575;23;20165;-91
2023/01/20 00:14:48;;;;;;;23.07;8.47;;;;;;;;;;6171609;23;20173;-90
2023/01/20 00:17:53;;;;;;;22.30;9.77;;;;;;;;;;6169516;23;20274;-91
2023/01/20 00:21:02;;;;;;;19.63;8.60;;;;;;;;;;6153374;23;20612;-88
2023/01/20 00:24:23;;;;;;;21.97;9.10;;;;;;;;;;6116156;23;20245;-88
2023/01/20 00:27:30;;;;;;;17.27;8.20;;;;;;;;;;6170618;23;20184;-89
2023/01/20 00:30:34;;;;;;;19.93;8.53;;;;;;;;;;6170886;23;20164;-88
2023/01/20 00:33:40;;;;;;;19.47;8.40;;;;;;;;;;6169243;23;20165;-89
2023/01/20 00:36:46;;;;;;;20.00;7.93;;;;;;;;;;6169163;23;20173;-89
2023/01/20 00:39:51;;;;;;;20.20;8.60;;;;;;;;;;6169368;23;20281;-90
2023/01/20 00:42:58;;;;;;;25.97;9.20;;;;;;;;;;6168468;23;20157;-92
2023/01/20 00:46:04;;;;;;;21.90;8.53;;;;;;;;;;6151734;23;20172;-90
2023/01/20 00:49:10;;;;;;;16.37;7.77;;;;;;;;;;6170133;23;20639;-89
2023/01/20 00:52:17;;;;;;;18.97;8.90;;;;;;;;;;6152688;23;20168;-89
2023/01/20 00:55:22;;;;;;;17.27;7.73;;;;;;;;;;6168588;23;20171;-90
2023/01/20 00:58:29;;;;;;;18.83;8.93;;;;;;;;;;6170000;23;20173;-89
2023/01/20 01:01:34;;;;;;;19.10;8.40;;;;;;;;;;6167759;23;20213;-89
2023/01/20 01:04:40;;;;;;;17.63;8.17;;;;;;;;;;6167134;23;20597;-89
2023/01/20 01:07:45;;;;;;;16.80;7.93;;;;;;;;;;6167390;23;20200;-87
2023/01/20 01:11:03;;;;;;;17.37;7.83;;;;;;;;;;6168103;23;20237;-91
2023/01/20 01:14:10;;;;;;;23.27;9.20;;;;;;;;;;6169787;23;20214;-90
2023/01/20 01:17:14;;;;;;;19.37;8.73;;;;;;;;;;6153154;23;20199;-92
2023/01/20 01:20:19;;;;;;;23.80;8.33;;;;;;;;;;6168940;23;20614;-89
2023/01/20 01:23:25;;;;;;;20.77;8.17;;;;;;;;;;6170001;23;20164;-90
2023/01/20 01:26:30;;;;;;;18.57;8.50;;;;;;;;;;6168274;23;20177;-88
2023/01/20 01:29:37;;;;;;;16.80;7.83;;;;;;;;;;6169164;23;20172;-89
2023/01/20 01:32:42;;;;;;;17.57;7.97;;;;;;;;;;6170311;23;20172;-88
2023/01/20 01:35:56;;;;;;;19.07;8.70;;;;;;;;;;6170675;23;20247;-90
2023/01/20 01:39:01;;;;;;;21.17;8.57;;;;;;;;;;6167879;23;20168;-89
2023/01/20 01:42:10;;;;;;;17.67;8.13;;;;;;;;;;6169248;23;20592;-88
2023/01/20 01:45:23;;;;;;;21.33;8.53;;;;;;;;;;6170141;23;20153;-89
2023/01/20 01:48:32;;;;;;;21.70;9.20;;;;;;;;;;6170239;23;20195;-91
2023/01/20 01:51:39;;;;;;;24.20;8.83;;;;;;;;;;6169396;23;20516;-90
2023/01/20 01:54:45;;;;;;;22.10;8.77;;;;;;;;;;6169596;23;20594;-87
2023/01/20 01:57:51;;;;;;;17.80;8.50;;;;;;;;;;6168666;23;20160;-87
2023/01/20 02:00:58;;;;;;;18.30;8.77;;;;;;;;;;6170591;23;20242;-92
2023/01/20 02:04:05;;;;;;;18.03;8.47;;;;;;;;;;6172203;23;20212;-91
2023/01/20 02:07:13;;;;;;;20.50;9.23;;;;;;;;;;6170915;23;20238;-91
2023/01/20 02:10:51;;;;;;;20.03;8.37;;;;;;;;;;6181937;23;20259;-86
2023/01/20 02:13:56;;;;;;;18.40;8.37;;;;;;;;;;6170302;23;20181;-89
2023/01/20 02:17:06;;;;;;;20.60;8.77;;;;;;;;;;6171898;23;20172;-89
2023/01/20 02:20:33;;;;;;;18.80;8.87;;;;;;;;;;6171444;23;20156;-91
2023/01/20 02:23:56;;;;;;;19.17;8.97;;;;;;;;;;6171370;23;20288;-89
2023/01/20 02:27:06;;;;;;;18.43;8.67;;;;;;;;;;6171930;23;20169;-91
2023/01/20 02:30:20;;;;;;;16.57;8.40;;;;;;;;;;6172680;23;20160;-89
2023/01/20 02:33:30;;;;;;;21.07;8.13;;;;;;;;;;6172609;23;20169;-88
2023/01/20 02:36:41;;;;;;;18.73;8.37;;;;;;;;;;6172169;23;20411;-91
2023/01/20 02:39:53;;;;;;;29.03;10.43;;;;;;;;;;6189543;23;20207;-89
2023/01/20 02:43:02;;;;;;;20.50;8.67;;;;;;;;;;6172753;23;20165;-89
2023/01/20 02:46:12;;;;;;;20.30;8.40;;;;;;;;;;6172895;23;20160;-89
2023/01/20 02:49:22;;;;;;;20.60;8.97;;;;;;;;;;6171806;23;20184;-90
2023/01/20 02:52:29;;;;;;;18.53;8.70;;;;;;;;;;6169776;23;20164;-90
2023/01/20 02:55:35;;;;;;;18.17;8.63;;;;;;;;;;6170362;23;20218;-90
2023/01/20 02:58:43;;;;;;;17.40;8.33;;;;;;;;;;6185755;23;20169;-87
2023/01/20 03:01:51;;;;;;;21.57;8.70;;;;;;;;;;6170533;23;20172;-88
2023/01/20 03:05:01;;;;;;;25.40;9.23;;;;;;;;;;6172396;23;20213;-88
2023/01/20 03:08:08;;;;;;;20.43;8.97;;;;;;;;;;6169910;23;20197;-89
2023/01/20 03:11:13;;;;;;;19.83;8.73;;;;;;;;;;6171234;23;20168;-90
2023/01/20 03:14:18;;;;;;;20.67;9.03;;;;;;;;;;6169856;23;20177;-89
2023/01/20 03:17:24;;;;;;;23.03;9.40;;;;;;;;;;6170932;23;20177;-88
2023/01/20 03:20:31;;;;;;;21.57;10.10;;;;;;;;;;6168677;23;20168;-90
2023/01/20 03:23:37;;;;;;;24.50;11.03;;;;;;;;;;6168474;23;20177;-91
2023/01/20 03:26:42;;;;;;;32.10;11.17;;;;;;;;;;6167538;23;20156;-91
2023/01/20 03:29:47;;;;;;;34.33;11.87;;;;;;;;;;6166978;23;20217;-90
2023/01/20 03:32:52;;;;;;;30.30;11.70;;;;;;;;;;6166976;23;20171;-91
2023/01/20 03:35:59;;;;;;;25.07;10.33;;;;;;;;;;6166408;23;20165;-90
2023/01/20 03:39:05;;;;;;;27.00;10.27;;;;;;;;;;6166460;23;20184;-88
2023/01/20 03:42:12;;;;;;;24.37;10.30;;;;;;;;;;6168280;23;20620;-89
2023/01/20 03:45:19;;;;;;;22.50;9.77;;;;;;;;;;6167317;23;20792;-91
2023/01/20 03:48:29;;;;;;;25.17;10.70;;;;;;;;;;6166325;23;20191;-89
2023/01/20 03:51:39;;;;;;;34.17;11.50;;;;;;;;;;6166553;23;20165;-90
2023/01/20 03:54:46;;;;;;;31.77;10.77;;;;;;;;;;6167035;23;20216;-89
2023/01/20 03:57:54;;;;;;;26.03;11.33;;;;;;;;;;6167957;23;20172;-87
2023/01/20 04:00:59;;;;;;;24.80;10.73;;;;;;;;;;6168842;23;20152;-88
2023/01/20 04:04:08;;;;;;;32.40;10.83;;;;;;;;;;6168591;23;20299;-88
2023/01/20 04:07:19;;;;;;;25.20;11.30;;;;;;;;;;6165951;23;20241;-88
2023/01/20 04:10:25;;;;;;;23.53;10.63;;;;;;;;;;6165897;23;20220;-92
2023/01/20 04:13:33;;;;;;;26.00;10.93;;;;;;;;;;6167560;23;20152;-90
2023/01/20 04:16:38;;;;;;;25.37;10.33;;;;;;;;;;6167574;23;20164;-88
2023/01/20 04:19:43;;;;;;;24.67;10.70;;;;;;;;;;6167654;23;20176;-88
2023/01/20 04:22:51;;;;;;;26.43;10.80;;;;;;;;;;6166897;23;20148;-88
2023/01/20 04:25:56;;;;;;;25.93;10.83;;;;;;;;;;6166401;23;20486;-89
2023/01/20 04:29:07;;;;;;;34.70;12.03;;;;;;;;;;6166614;23;20180;-89
2023/01/20 04:32:12;;;;;;;31.40;11.10;;;;;;;;;;6167229;23;20180;-89
2023/01/20 04:35:19;;;;;;;20.97;9.90;;;;;;;;;;6166944;23;20176;-89
2023/01/20 04:38:26;;;;;;;20.13;10.10;;;;;;;;;;6169132;23;20197;-90
2023/01/20 04:41:32;;;;;;;24.53;10.77;;;;;;;;;;6167660;23;20163;-90
2023/01/20 04:44:37;;;;;;;25.03;10.20;;;;;;;;;;6166105;23;20161;-89
2023/01/20 04:47:43;;;;;;;21.80;9.63;;;;;;;;;;6165778;23;20171;-88
2023/01/20 04:50:49;;;;;;;22.67;10.83;;;;;;;;;;6166128;23;20176;-91
2023/01/20 04:53:58;;;;;;;23.07;10.10;;;;;;;;;;6165683;23;20177;-88
2023/01/20 04:57:03;;;;;;;22.63;9.67;;;;;;;;;;6166350;23;20618;-89
2023/01/20 05:00:09;;;;;;;23.60;10.43;;;;;;;;;;6166578;23;20211;-90
2023/01/20 05:03:42;;;;;;;21.73;10.13;;;;;;;;;;6167864;23;20176;-90
2023/01/20 05:06:47;;;;;;;25.23;10.57;;;;;;;;;;6167334;23;20219;-89
2023/01/20 05:09:53;;;;;;;20.50;9.67;;;;;;;;;;6165985;23;20211;-88
2023/01/20 05:12:59;;;;;;;20.30;10.30;;;;;;;;;;6164348;23;20172;-88
2023/01/20 05:16:05;;;;;;;24.70;11.03;;;;;;;;;;6164784;23;20533;-89
2023/01/20 05:19:11;;;;;;;23.13;9.67;;;;;;;;;;6166688;23;20174;-90
2023/01/20 05:22:16;;;;;;;26.30;10.73;;;;;;;;;;6167448;23;20172;-90
2023/01/20 05:25:22;;;;;;;22.10;8.97;;;;;;;;;;6165551;23;20620;-90
2023/01/20 05:28:27;;;;;;;28.47;9.60;;;;;;;;;;6165049;23;20192;-92
2023/01/20 05:31:33;;;;;;;22.03;10.10;;;;;;;;;;6164621;23;20148;-88
2023/01/20 05:34:38;;;;;;;22.20;10.30;;;;;;;;;;6166473;23;20239;-91
2023/01/20 05:37:43;;;;;;;26.20;10.27;;;;;;;;;;6165655;23;20253;-90
2023/01/20 05:40:53;;;;;;;34.07;11.63;;;;;;;;;;6166530;23;20177;-89
2023/01/20 05:43:58;;;;;;;20.03;9.90;;;;;;;;;;6166634;23;20244;-87
2023/01/20 05:47:03;;;;;;;23.60;10.27;;;;;;;;;;6166797;23;20153;-89
2023/01/20 05:50:09;;;;;;;26.93;10.27;;;;;;;;;;6168369;23;20195;-88
2023/01/20 05:53:13;;;;;;;21.40;10.03;;;;;;;;;;6166367;23;20179;-89
2023/01/20 05:56:20;;;;;;;26.80;11.23;;;;;;;;;;6166809;23;20238;-90
2023/01/20 05:59:26;;;;;;;24.30;10.77;;;;;;;;;;6166335;23;20505;-90
2023/01/20 06:02:34;;;;;;;24.00;11.73;;;;;;;;;;6165546;23;20192;-88
2023/01/20 06:09:28;;;;;;;32.53;14.07;;;;;;;;;;6169275;23;20224;-90
2023/01/20 06:12:35;;;;;;;31.53;12.27;;;;;;;;;;6168438;23;20670;-88
2023/01/20 06:15:40;;;;;;;30.43;14.13;;;;;;;;;;6167902;23;20172;-88
2023/01/20 06:18:46;;;;;;;23.60;10.63;;;;;;;;;;6171625;23;20189;-89
2023/01/20 06:21:52;;;;;;;23.40;10.53;;;;;;;;;;6169473;23;20283;-89
2023/01/20 06:24:57;;;;;;;30.30;12.07;;;;;;;;;;6169723;23;20157;-89
2023/01/20 06:28:04;;;;;;;33.57;12.07;;;;;;;;;;6170452;23;20169;-88
2023/01/20 06:31:10;;;;;;;32.57;13.03;;;;;;;;;;6169281;23;20221;-90
2023/01/20 06:34:16;;;;;;;30.27;12.60;;;;;;;;;;6170175;23;20169;-87
2023/01/20 06:37:21;;;;;;;31.03;13.60;;;;;;;;;;6171997;23;20192;-89
2023/01/20 06:40:30;;;;;;;31.13;13.43;;;;;;;;;;6169210;23;20168;-89
2023/01/20 06:43:38;;;;;;;31.43;12.77;;;;;;;;;;6170550;23;20169;-90
2023/01/20 06:46:44;;;;;;;23.20;11.63;;;;;;;;;;6169229;23;20664;-90
2023/01/20 06:49:50;;;;;;;26.77;12.23;;;;;;;;;;6170035;23;20195;-88
2023/01/20 06:52:56;;;;;;;25.57;12.43;;;;;;;;;;6169705;23;20168;-89
2023/01/20 06:56:04;;;;;;;30.47;12.37;;;;;;;;;;6151929;23;20168;-89
2023/01/20 06:59:13;;;;;;;23.30;11.57;;;;;;;;;;6167914;23;20172;-89
2023/01/20 07:02:18;;;;;;;23.53;12.03;;;;;;;;;;6168642;23;20165;-88
2023/01/20 07:05:24;;;;;;;27.03;11.97;;;;;;;;;;6170969;23;20201;-90
2023/01/20 07:08:29;;;;;;;34.90;12.67;;;;;;;;;;6168141;23;20168;-88
2023/01/20 07:11:43;;;;;;;28.50;12.93;;;;;;;;;;6150991;23;20221;-87
2023/01/20 07:14:50;;;;;;;27.00;12.20;;;;;;;;;;6150880;23;20218;-88
2023/01/20 07:17:55;;;;;;;27.23;12.47;;;;;;;;;;6166544;23;20156;-88
2023/01/20 07:21:01;;;;;;;23.67;11.43;;;;;;;;;;6150904;23;20173;-88
2023/01/20 07:24:07;;;;;;;35.10;12.87;;;;;;;;;;6168196;23;20171;-90
2023/01/20 07:27:13;;;;;;;25.83;11.80;;;;;;;;;;6166408;23;20241;-89
2023/01/20 07:30:40;;;;;;;22.77;11.27;;;;;;;;;;6167343;23;20232;-88
2023/01/20 07:33:46;;;;;;;22.60;11.13;;;;;;;;;;6149322;23;20152;-89
2023/01/20 07:36:52;;;;;;;25.83;11.40;;;;;;;;;;6167189;23;20176;-90
2023/01/20 07:39:57;;;;;;;30.20;11.03;;;;;;;;;;6167757;23;20201;-88
2023/01/20 07:43:04;;;;;;;22.47;11.57;;;;;;;;;;6150712;23;20168;-90
2023/01/20 07:46:11;;;;;;;27.07;12.37;;;;;;;;;;6167611;23;20228;-90
2023/01/20 07:49:16;;;;;;;29.97;13.30;;;;;;;;;;6166441;23;20247;-89
2023/01/20 07:52:21;;;;;;;29.77;12.73;;;;;;;;;;6152113;23;20164;-89
2023/01/20 07:55:27;;;;;;;41.50;16.83;;;;;;;;;;6152873;23;20176;-89
2023/01/20 07:58:32;;;;;;;30.60;14.47;;;;;;;;;;6152110;23;20213;-91
2023/01/20 08:01:38;;;;;;;30.60;13.40;;;;;;;;;;6172705;23;20172;-90
2023/01/20 08:04:46;;;;;;;29.30;13.27;;;;;;;;;;6171325;23;20281;-89
2023/01/20 08:07:52;;;;;;;31.77;14.00;;;;;;;;;;6171277;23;20168;-89
2023/01/20 08:10:58;;;;;;;33.77;16.27;;;;;;;;;;6171404;23;20588;-91
2023/01/20 08:14:07;;;;;;;32.93;15.17;;;;;;;;;;6156926;23;20932;-91
2023/01/20 08:17:14;;;;;;;35.10;15.80;;;;;;;;;;6153051;23;20216;-90
2023/01/20 08:20:22;;;;;;;31.70;14.53;;;;;;;;;;6153554;23;20172;-90
2023/01/20 08:23:27;;;;;;;34.73;14.67;;;;;;;;;;6154450;23;20224;-91
2023/01/20 08:26:33;;;;;;;31.60;15.33;;;;;;;;;;6153370;23;20169;-88
2023/01/20 08:29:41;;;;;;;33.50;16.00;;;;;;;;;;6162976;23;20196;-88
2023/01/20 08:32:52;;;;;;;43.60;18.93;;;;;;;;;;6178861;23;20200;-90
2023/01/20 08:36:03;;;;;;;36.33;16.20;;;;;;;;;;6171624;23;20207;-87
2023/01/20 08:39:10;;;;;;;33.27;16.20;;;;;;;;;;6155639;23;20172;-87
2023/01/20 17:42:06;;;;;;;65.70;30.10;;;;;;;;;;6135366;23;20224;-90
2023/01/20 17:45:12;;;;;;;66.83;28.43;;;;;;;;;;6173673;23;20209;-88
2023/01/20 17:48:26;;;;;;;61.13;27.57;;;;;;;;;;6155603;23;20152;-90
2023/01/20 17:51:32;;;;;;;61.60;27.37;;;;;;;;;;6173293;23;20189;-89
2023/01/20 17:54:37;;;;;;;66.33;29.37;;;;;;;;;;6156952;23;20185;-89
2023/01/20 17:57:46;;;;;;;63.27;28.83;;;;;;;;;;6158100;23;20169;-90
2023/01/20 18:04:49;;;;;;;82.23;34.30;;;;;;;;;;6159200;23;20375;-89
2023/01/20 18:07:55;;;;;;;68.50;28.43;;;;;;;;;;6158319;23;20172;-88
2023/01/20 18:11:18;;;;;;;69.70;29.60;;;;;;;;;;6176033;23;20196;-87
2023/01/20 18:14:28;;;;;;;70.47;27.03;;;;;;;;;;6173768;23;20209;-89
2023/01/20 18:17:34;;;;;;;67.00;27.70;;;;;;;;;;6156749;23;20202;-89
2023/01/20 18:20:39;;;;;;;63.73;27.83;;;;;;;;;;6174487;23;20168;-90
2023/01/20 18:23:46;;;;;;;63.33;27.83;;;;;;;;;;6158849;23;20184;-89
2023/01/20 18:26:51;;;;;;;79.23;33.43;;;;;;;;;;6175957;23;20168;-90
2023/01/20 18:29:59;;;;;;;68.73;29.73;;;;;;;;;;6155946;23;20196;-90
2023/01/20 18:33:10;;;;;;;65.67;27.97;;;;;;;;;;6156377;23;20189;-91
2023/01/20 18:36:17;;;;;;;75.43;30.77;;;;;;;;;;6157793;23;20168;-90
2023/01/20 18:39:24;;;;;;;72.17;30.40;;;;;;;;;;6174368;23;20172;-90
2023/01/20 18:42:35;;;;;;;71.93;32.10;;;;;;;;;;6165855;23;20176;-90
2023/01/20 18:45:41;;;;;;;70.77;28.60;;;;;;;;;;6155866;23;20607;-89
2023/01/20 18:48:50;;;;;;;124.57;49.53;;;;;;;;;;6173464;23;20193;-89
2023/01/20 18:51:55;;;;;;;80.47;32.43;;;;;;;;;;6173927;23;20168;-89
2023/01/20 18:55:01;;;;;;;71.50;30.17;;;;;;;;;;6174510;23;20157;-89
2023/01/20 18:58:07;;;;;;;64.97;27.53;;;;;;;;;;6174292;23;20181;-89
2023/01/20 19:01:20;;;;;;;62.30;27.10;;;;;;;;;;6174003;23;20248;-89
2023/01/20 19:04:26;;;;;;;60.03;26.87;;;;;;;;;;6173686;23;20189;-89
2023/01/20 19:07:32;;;;;;;66.40;28.73;;;;;;;;;;6174653;23;20172;-90
2023/01/20 19:11:16;;;;;;;66.03;27.60;;;;;;;;;;6174709;23;20180;-89
2023/01/20 19:14:31;;;;;;;63.93;25.97;;;;;;;;;;6175741;23;20197;-90
2023/01/20 19:17:43;;;;;;;64.40;26.50;;;;;;;;;;6174904;23;20218;-90
2023/01/20 19:20:49;;;;;;;60.47;25.73;;;;;;;;;;6175470;23;20185;-88
2023/01/20 19:24:04;;;;;;;58.53;25.30;;;;;;;;;;6177893;23;20156;-89
2023/01/20 19:27:10;;;;;;;62.47;25.07;;;;;;;;;;6173961;23;20169;-91
2023/01/20 19:30:15;;;;;;;59.97;25.37;;;;;;;;;;6174534;23;20353;-89
2023/01/20 19:33:23;;;;;;;67.63;27.00;;;;;;;;;;6172412;23;20168;-91
2023/01/20 19:36:28;;;;;;;63.13;25.50;;;;;;;;;;6172370;23;20209;-90
2023/01/20 19:39:33;;;;;;;132.50;50.73;;;;;;;;;;6172386;23;20240;-89
2023/01/20 19:42:39;;;;;;;67.80;26.93;;;;;;;;;;6171834;23;20253;-91
2023/01/20 19:45:45;;;;;;;62.43;26.70;;;;;;;;;;6173738;23;20211;-89
2023/01/20 19:48:53;;;;;;;57.93;25.00;;;;;;;;;;6174313;23;20192;-92
2023/01/20 19:51:59;;;;;;;57.60;25.60;;;;;;;;;;6174657;23;20192;-88
2023/01/20 19:55:06;;;;;;;55.80;24.67;;;;;;;;;;6175832;23;20156;-90
2023/01/20 19:58:12;;;;;;;58.17;24.63;;;;;;;;;;6173147;23;20224;-89
2023/01/20 20:01:18;;;;;;;59.83;24.37;;;;;;;;;;6172272;23;20216;-92
2023/01/20 20:04:26;;;;;;;54.13;22.37;;;;;;;;;;6173799;23;20243;-89
2023/01/20 20:07:31;;;;;;;52.43;22.57;;;;;;;;;;6172773;23;20169;-89
2023/01/20 20:10:41;;;;;;;58.50;23.53;;;;;;;;;;6175932;23;20196;-89
2023/01/20 20:13:47;;;;;;;56.00;21.30;;;;;;;;;;6175128;23;20172;-88
2023/01/20 20:16:53;;;;;;;55.03;24.57;;;;;;;;;;6174488;23;20261;-89
2023/01/20 20:20:01;;;;;;;61.27;24.17;;;;;;;;;;6175301;23;20725;-91
2023/01/20 20:23:07;;;;;;;59.87;24.00;;;;;;;;;;6173949;23;20181;-89
2023/01/20 20:26:12;;;;;;;73.97;31.20;;;;;;;;;;6173349;23;20268;-91
2023/01/20 20:29:20;;;;;;;69.57;30.40;;;;;;;;;;6173107;23;20164;-90
2023/01/20 20:32:25;;;;;;;64.23;26.70;;;;;;;;;;6174269;23;20175;-92
2023/01/20 20:35:35;;;;;;;64.40;26.20;;;;;;;;;;6174910;23;20189;-89
2023/01/20 20:38:41;;;;;;;68.03;27.93;;;;;;;;;;6173800;23;20209;-89
2023/01/20 20:41:47;;;;;;;64.70;24.93;;;;;;;;;;6173928;23;20219;-91
2023/01/20 20:44:52;;;;;;;62.93;25.70;;;;;;;;;;6173417;23;20168;-92
2023/01/20 20:48:01;;;;;;;70.40;28.40;;;;;;;;;;6176897;23;20168;-90
2023/01/20 20:51:09;;;;;;;60.27;25.63;;;;;;;;;;6177012;23;20195;-90
2023/01/20 20:54:15;;;;;;;58.60;24.60;;;;;;;;;;6174499;23;20181;-91
2023/01/20 20:57:21;;;;;;;56.97;24.30;;;;;;;;;;6177159;23;20160;-89
2023/01/20 21:00:27;;;;;;;62.63;24.13;;;;;;;;;;6175483;23;20175;-90
2023/01/20 21:03:33;;;;;;;64.23;26.73;;;;;;;;;;6173688;23;20218;-89
2023/01/20 21:06:41;;;;;;;62.97;25.37;;;;;;;;;;6173676;23;20540;-89
2023/01/20 21:09:47;;;;;;;60.80;24.93;;;;;;;;;;6174693;23;20197;-91
2023/01/20 21:13:25;;;;;;;65.97;25.60;;;;;;;;;;6172441;23;20156;-90
2023/01/20 21:16:36;;;;;;;59.07;24.40;;;;;;;;;;6177051;23;20188;-90
2023/01/20 21:19:45;;;;;;;59.73;24.43;;;;;;;;;;6173693;23;20172;-88
2023/01/20 21:22:55;;;;;;;61.63;25.10;;;;;;;;;;6178840;23;20168;-88
2023/01/20 21:26:01;;;;;;;65.63;26.80;;;;;;;;;;6175933;23;20171;-91
2023/01/20 21:29:07;;;;;;;62.60;24.57;;;;;;;;;;6176413;23;20225;-90
2023/01/20 21:32:14;;;;;;;74.67;30.03;;;;;;;;;;6177892;23;20235;-90
2023/01/20 21:35:20;;;;;;;63.03;26.17;;;;;;;;;;6178120;23;20153;-90
2023/01/20 21:38:30;;;;;;;59.57;25.53;;;;;;;;;;6175587;23;20168;-91
2023/01/20 21:41:36;;;;;;;68.80;26.13;;;;;;;;;;6174645;23;20196;-91
2023/01/20 21:44:42;;;;;;;62.30;24.40;;;;;;;;;;6174916;23;20160;-91
2023/01/20 21:54:05;;;;;;;61.90;25.43;;;;;;;;;;6101426;23;20189;-90
2023/01/20 21:57:15;;;;;;;61.13;24.83;;;;;;;;;;6069805;23;20170;-90
2023/01/20 22:00:21;;;;;;;60.87;24.73;;;;;;;;;;6069164;23;20167;-90
2023/01/20 22:03:26;;;;;;;60.77;25.27;;;;;;;;;;6069876;23;20714;-89
2023/01/20 22:06:32;;;;;;;61.30;25.40;;;;;;;;;;6069549;23;20162;-91
2023/01/20 22:09:37;;;;;;;66.27;25.43;;;;;;;;;;6069851;23;20166;-89
2023/01/20 22:12:44;;;;;;;66.20;26.30;;;;;;;;;;6068319;23;20158;-89
2023/01/20 22:15:50;;;;;;;70.63;26.37;;;;;;;;;;6069026;23;20238;-90
2023/01/20 22:19:04;;;;;;;62.20;25.23;;;;;;;;;;6069224;23;20200;-91
2023/01/20 22:22:10;;;;;;;68.50;28.50;;;;;;;;;;6070761;23;20159;-90
2023/01/20 22:25:16;;;;;;;62.97;26.30;;;;;;;;;;6068249;23;20212;-91
2023/01/20 22:28:24;;;;;;;62.53;25.90;;;;;;;;;;6069011;23;20174;-89
2023/01/20 22:31:30;;;;;;;59.50;23.87;;;;;;;;;;6069435;23;20277;-91
2023/01/20 22:34:37;;;;;;;62.20;24.63;;;;;;;;;;6071719;23;20179;-90
2023/01/20 22:37:43;;;;;;;58.43;23.77;;;;;;;;;;6069217;23;20203;-89
2023/01/20 22:40:51;;;;;;;55.47;22.90;;;;;;;;;;6068188;23;20175;-90
2023/01/20 22:43:58;;;;;;;59.33;25.03;;;;;;;;;;6067456;23;20222;-90
2023/01/20 22:47:08;;;;;;;57.83;24.67;;;;;;;;;;6067535;23;20178;-89
2023/01/20 22:50:15;;;;;;;65.83;25.87;;;;;;;;;;6066799;23;20175;-89
2023/01/20 22:53:21;;;;;;;63.17;25.40;;;;;;;;;;6068002;23;20179;-90
2023/01/20 22:56:28;;;;;;;56.87;24.20;;;;;;;;;;6064674;23;20174;-92
2023/01/20 22:59:36;;;;;;;55.33;23.60;;;;;;;;;;6068283;23;20188;-90
2023/01/20 23:02:41;;;;;;;63.10;24.47;;;;;;;;;;6067590;23;20227;-91
2023/01/20 23:05:51;;;;;;;61.53;23.93;;;;;;;;;;6067422;23;20192;-89
2023/01/20 23:08:57;;;;;;;58.13;24.27;;;;;;;;;;6069269;23;20171;-90
2023/01/20 23:12:02;;;;;;;53.60;22.10;;;;;;;;;;6067009;23;20233;-92
2023/01/20 23:15:10;;;;;;;53.23;22.97;;;;;;;;;;6069640;23;20183;-91
2023/01/20 23:21:57;;;;;;;58.33;23.57;;;;;;;;;;6071434;23;20187;-87
2023/01/20 23:25:03;;;;;;;51.40;21.83;;;;;;;;;;6069792;23;20162;-90
2023/01/20 23:28:08;;;;;;;58.57;24.33;;;;;;;;;;6069681;23;20622;-89
2023/01/20 23:31:16;;;;;;;56.93;22.50;;;;;;;;;;6069221;23;20220;-89
2023/01/20 23:34:22;;;;;;;55.13;22.50;;;;;;;;;;6070301;23;20219;-93
2023/01/20 23:37:27;;;;;;;52.93;21.60;;;;;;;;;;6068937;23;20170;-93
2023/01/20 23:40:33;;;;;;;49.43;21.20;;;;;;;;;;6068819;23;20637;-91
2023/01/20 23:43:39;;;;;;;53.03;22.47;;;;;;;;;;6068592;23;20196;-91
2023/01/20 23:46:46;;;;;;;47.63;20.63;;;;;;;;;;6068457;23;20170;-91
2023/01/20 23:49:51;;;;;;;50.53;21.00;;;;;;;;;;6067540;23;20407;-90
2023/01/20 23:52:56;;;;;;;41.60;19.03;;;;;;;;;;6066645;23;20251;-89
2023/01/20 23:56:02;;;;;;;50.97;21.40;;;;;;;;;;6072378;23;20182;-91
2023/01/20 23:59:07;;;;;;;49.50;19.10;;;;;;;;;;6070121;23;20215;-94
